North Providence, Rhode Island
Current Conditions -  °F | °C
As of 9:15 AM on Wednesday 26 Nov 2014 (Local Time) from KSFZ Reporting Station
Overcast Overcast  
Wind Chill: 32°   Ceiling: 3800
Heat Index: 39°   Visibility: 10mi
Dew Point: 28°   Wind: 10mph
Humidity: 65%   Direction: 10°N
Pressure: 30.14"   Gusts: NA
Location:  41.86°N, 71.48°W
Report Text: KSFZ 261415Z 01009KT 10SM OVC038 04/M02 A3014 RMK AO1 P0003
Loading
Personal Weather Stations






























Interactive Weather Map New forecast layout! Learn more

10-Day Weather Forecast

Advertisements
Track Severe Weather on mobile